Time;durP1;ratioP1;P1;durP2;ratioP2;P2;SDS_P1;SDS_P2;PMS_P1;PMS_P2;Temp;Humidity;BMP_temperature;BMP_pressure;BME280_temperature;BME280_humidity;BME280_pressure;Samples;Min_cycle;Max_cycle;Signal;HPM_P1;HPM_P2
2021/12/23 00:02:39;;;;;;;16.83;9.55;;;-0.40;99.90;;;;;;2124318;67;20667;-70
2021/12/23 00:05:23;;;;;;;11.80;8.00;;;-1.00;99.90;;;;;;2139102;66;20270;-71
2021/12/23 00:08:04;;;;;;;14.32;9.50;;;-1.00;99.90;;;;;;2138695;67;20220;-70
2021/12/23 00:10:46;;;;;;;13.43;8.77;;;-0.90;99.90;;;;;;2135391;66;20336;-71
2021/12/23 00:13:35;;;;;;;12.98;9.25;;;-0.90;99.90;;;;;;2137006;66;20423;-70
2021/12/23 00:16:43;;;;;;;14.40;8.77;;;-0.80;99.90;;;;;;2123258;67;20257;-70
2021/12/23 00:25:17;;;;;;;16.23;9.55;;;-0.80;99.90;;;;;;2122663;67;20431;-71
2021/12/23 00:28:02;;;;;;;12.52;8.85;;;-0.70;99.90;;;;;;2128023;67;21147;-71
2021/12/23 00:30:38;;;;;;;15.70;9.00;;;-0.80;99.90;;;;;;2136089;66;20327;-70
2021/12/23 00:33:30;;;;;;;14.90;9.50;;;-0.70;99.90;;;;;;2135109;67;20680;-71
2021/12/23 00:36:17;;;;;;;14.55;9.55;;;-0.70;99.90;;;;;;2141598;66;20232;-71
2021/12/23 00:39:06;;;;;;;13.00;8.65;;;-0.70;99.90;;;;;;2144369;66;20755;-71
2021/12/23 00:41:45;;;;;;;13.45;9.05;;;-0.60;99.90;;;;;;2152793;66;20357;-70
2021/12/23 00:44:25;;;;;;;16.17;9.82;;;-0.60;99.90;;;;;;2168377;66;20243;-70
2021/12/23 00:47:05;;;;;;;14.02;9.02;;;-0.60;99.90;;;;;;2179981;65;20197;-69
2021/12/23 00:49:41;;;;;;;13.52;8.98;;;-0.60;99.90;;;;;;2195939;65;20206;-70
2021/12/23 00:52:23;;;;;;;15.60;10.10;;;-0.60;99.90;;;;;;2209238;64;20408;-69
2021/12/23 00:55:15;;;;;;;14.35;8.90;;;-0.60;99.90;;;;;;2214673;64;20623;-70
2021/12/23 00:58:07;;;;;;;15.02;9.35;;;-0.20;99.90;;;;;;2211601;64;20960;-71
2021/12/23 01:01:00;;;;;;;13.93;9.18;;;-0.60;99.90;;;;;;2208082;64;20160;-70
2021/12/23 01:03:40;;;;;;;13.57;9.55;;;-0.50;99.90;;;;;;2205804;65;20185;-69
2021/12/23 01:06:22;;;;;;;12.90;9.65;;;-0.50;99.90;;;;;;2205276;64;20201;-69
2021/12/23 01:09:32;;;;;;;12.32;8.88;;;-0.50;99.90;;;;;;2203622;65;20232;-69
2021/12/23 01:12:11;;;;;;;12.48;8.98;;;-0.50;99.90;;;;;;2198460;65;20304;-70
2021/12/23 01:15:15;;;;;;;12.48;8.82;;;-0.40;99.90;;;;;;2203032;65;20382;-69
2021/12/23 01:17:54;;;;;;;15.55;10.10;;;-0.40;99.90;;;;;;2206669;64;20158;-69
2021/12/23 01:20:35;;;;;;;13.82;8.95;;;-0.40;99.90;;;;;;2213447;64;20793;-68
2021/12/23 01:23:13;;;;;;;16.92;10.93;;;-0.40;99.90;;;;;;2216776;64;20155;-68
2021/12/23 01:25:52;;;;;;;13.90;9.75;;;-0.30;99.90;;;;;;2216165;64;20248;-70
2021/12/23 01:28:34;;;;;;;13.40;10.10;;;-0.30;99.90;;;;;;2217055;64;20401;-69
2021/12/23 01:31:17;;;;;;;14.85;9.95;;;-0.30;99.90;;;;;;2215977;64;20332;-68
2021/12/23 01:34:02;;;;;;;13.20;9.93;;;-0.30;99.90;;;;;;2211412;64;20227;-71
2021/12/23 01:36:45;;;;;;;15.23;10.13;;;-0.20;99.90;;;;;;2200827;64;20621;-70
2021/12/23 01:39:33;;;;;;;15.05;9.70;;;-0.20;99.90;;;;;;2184800;65;20735;-70
2021/12/23 01:42:18;;;;;;;14.13;9.50;;;-0.10;99.90;;;;;;2185278;65;20717;-69
2021/12/23 01:45:00;;;;;;;14.82;10.40;;;-0.10;99.90;;;;;;2180617;65;20364;-69
2021/12/23 01:47:42;;;;;;;14.73;9.85;;;-0.10;99.90;;;;;;2189632;65;20573;-69
2021/12/23 01:50:27;;;;;;;15.88;9.52;;;0.00;99.90;;;;;;2181705;65;20211;-69
2021/12/23 01:53:10;;;;;;;15.10;9.82;;;0.00;99.90;;;;;;2177123;65;20340;-71
2021/12/23 01:55:52;;;;;;;14.68;10.60;;;0.00;99.90;;;;;;2175432;65;20562;-69
2021/12/23 01:58:38;;;;;;;15.38;11.32;;;0.00;99.90;;;;;;2160092;66;20180;-68
2021/12/23 02:01:21;;;;;;;15.07;9.77;;;0.00;99.90;;;;;;2154542;66;20309;-69
2021/12/23 02:04:05;;;;;;;18.25;11.15;;;0.00;99.90;;;;;;2135755;66;20364;-68
2021/12/23 02:06:47;;;;;;;16.67;11.48;;;0.00;99.90;;;;;;2133052;66;20646;-70
2021/12/23 02:09:29;;;;;;;16.75;11.75;;;-0.10;99.90;;;;;;2132847;67;20223;-69
2021/12/23 02:12:12;;;;;;;14.73;9.48;;;-0.10;99.90;;;;;;2125561;67;20268;-70
2021/12/23 02:14:56;;;;;;;17.42;11.80;;;-0.10;99.90;;;;;;2140386;66;20249;-70
2021/12/23 02:17:39;;;;;;;20.30;11.20;;;-0.20;99.90;;;;;;2140453;66;20216;-70
2021/12/23 02:20:23;;;;;;;16.02;10.70;;;-0.30;99.90;;;;;;2128406;67;20285;-70
2021/12/23 02:23:08;;;;;;;16.70;11.00;;;0.50;99.90;;;;;;2126393;67;20421;-69
2021/12/23 02:25:51;;;;;;;17.70;10.60;;;-0.40;99.90;;;;;;2126682;67;20342;-68
2021/12/23 02:28:36;;;;;;;17.38;11.02;;;-0.40;99.90;;;;;;2114416;67;20403;-70
2021/12/23 02:31:18;;;;;;;16.20;10.65;;;-0.40;99.90;;;;;;2126626;67;20793;-70
2021/12/23 02:34:01;;;;;;;15.90;11.02;;;-0.40;99.90;;;;;;2124199;67;20360;-71
2021/12/23 02:37:12;;;;;;;16.08;10.82;;;-0.30;99.90;;;;;;2132205;66;20329;-70
2021/12/23 02:39:54;;;;;;;16.85;10.63;;;-0.10;99.90;;;;;;2129934;67;20187;-71
2021/12/23 02:42:36;;;;;;;15.93;11.75;;;-0.30;99.90;;;;;;2122557;67;20176;-69
2021/12/23 02:45:20;;;;;;;17.83;12.27;;;-0.30;99.90;;;;;;2120717;67;20232;-70
2021/12/23 02:48:09;;;;;;;15.18;10.30;;;-0.30;99.90;;;;;;2117676;67;20361;-70
2021/12/23 02:50:52;;;;;;;15.88;10.63;;;-0.30;99.90;;;;;;2112457;67;20342;-70
2021/12/23 02:53:38;;;;;;;17.95;10.88;;;-0.30;99.90;;;;;;2109364;67;20210;-70
2021/12/23 02:56:22;;;;;;;20.50;10.85;;;-0.40;99.90;;;;;;2111975;67;20232;-70
2021/12/23 02:59:06;;;;;;;16.65;10.85;;;-0.20;99.90;;;;;;2115928;67;20189;-69
2021/12/23 03:01:47;;;;;;;16.65;10.40;;;-0.40;99.90;;;;;;2114940;67;20631;-71
2021/12/23 03:04:31;;;;;;;16.30;10.27;;;-0.30;99.90;;;;;;2119555;67;20256;-69
2021/12/23 03:07:14;;;;;;;16.60;10.77;;;-0.30;99.90;;;;;;2137634;67;20290;-70
2021/12/23 03:09:56;;;;;;;14.90;10.63;;;-0.30;99.90;;;;;;2129487;67;20204;-70
2021/12/23 03:12:38;;;;;;;18.98;11.82;;;-0.30;99.90;;;;;;2125027;66;20259;-71
2021/12/23 03:15:20;;;;;;;15.98;10.85;;;-0.30;99.90;;;;;;2132006;67;20372;-70
2021/12/23 03:18:02;;;;;;;18.98;10.70;;;-0.30;99.90;;;;;;2123821;67;20284;-69
2021/12/23 03:20:44;;;;;;;16.77;11.18;;;-0.30;99.90;;;;;;2125634;67;20329;-71
2021/12/23 03:23:26;;;;;;;17.50;10.65;;;-0.30;99.90;;;;;;2114110;67;20751;-71
2021/12/23 03:26:08;;;;;;;19.92;11.45;;;-0.30;99.90;;;;;;2110473;67;20358;-70
2021/12/23 03:28:51;;;;;;;16.63;12.57;;;-0.30;99.90;;;;;;2139294;66;20415;-69
2021/12/23 03:31:35;;;;;;;16.73;10.52;;;-0.30;99.90;;;;;;2131509;67;20317;-70
2021/12/23 03:34:18;;;;;;;16.95;12.20;;;-0.30;99.90;;;;;;2151494;66;20313;-69
2021/12/23 03:37:02;;;;;;;17.63;11.10;;;-0.20;99.90;;;;;;2146095;66;20206;-71
2021/12/23 03:39:44;;;;;;;17.80;10.88;;;-0.20;99.90;;;;;;2139453;66;20263;-71
2021/12/23 03:42:25;;;;;;;14.77;10.40;;;-0.20;99.90;;;;;;2145932;66;20190;-70
2021/12/23 03:45:09;;;;;;;15.05;11.35;;;-0.10;99.90;;;;;;2140600;66;20432;-70
2021/12/23 03:47:52;;;;;;;16.33;11.68;;;-0.10;99.90;;;;;;2145692;66;20282;-71
2021/12/23 03:50:36;;;;;;;17.75;11.73;;;-0.10;99.90;;;;;;2130721;67;20339;-69
2021/12/23 03:53:18;;;;;;;14.43;11.00;;;-0.10;99.90;;;;;;2107697;67;20284;-70
2021/12/23 03:56:00;;;;;;;19.00;12.32;;;-0.10;99.90;;;;;;2119585;67;20281;-69
2021/12/23 03:58:45;;;;;;;19.38;11.13;;;-0.10;99.90;;;;;;2134874;67;20824;-69
2021/12/23 04:01:29;;;;;;;19.92;11.63;;;-0.10;99.90;;;;;;2134207;67;20324;-69
2021/12/23 04:04:11;;;;;;;16.70;11.15;;;-0.10;99.90;;;;;;2132739;67;20289;-69
2021/12/23 04:06:53;;;;;;;18.08;11.80;;;-0.10;99.90;;;;;;2113548;67;20695;-69
2021/12/23 04:09:35;;;;;;;17.98;11.05;;;-0.10;99.90;;;;;;2125283;67;20202;-70
2021/12/23 04:12:17;;;;;;;13.60;10.73;;;-0.20;99.90;;;;;;2126431;67;20313;-70
2021/12/23 04:14:58;;;;;;;17.58;12.15;;;-0.10;99.90;;;;;;2131198;67;20323;-70
2021/12/23 04:17:40;;;;;;;23.40;11.77;;;-0.10;99.90;;;;;;2138716;67;20234;-70
2021/12/23 04:20:31;;;;;;;18.92;12.35;;;-0.20;99.90;;;;;;2131440;67;20718;-70
2021/12/23 04:23:17;;;;;;;17.55;11.18;;;-0.20;99.90;;;;;;2141875;66;20980;-70
2021/12/23 04:26:01;;;;;;;18.05;11.60;;;-0.20;99.90;;;;;;2118559;67;20236;-71
2021/12/23 04:28:47;;;;;;;17.92;11.73;;;-0.20;99.90;;;;;;2124706;67;20172;-69
2021/12/23 04:31:28;;;;;;;18.73;11.57;;;-0.20;99.90;;;;;;2111615;67;20376;-69
2021/12/23 04:34:10;;;;;;;21.08;11.18;;;-0.20;99.90;;;;;;2113940;67;20197;-70
2021/12/23 04:36:52;;;;;;;17.25;11.60;;;-0.10;99.90;;;;;;2116788;67;20184;-70
2021/12/23 04:39:35;;;;;;;18.52;11.23;;;-0.20;99.90;;;;;;2090494;68;20332;-70
2021/12/23 04:42:16;;;;;;;20.08;12.40;;;-0.20;99.90;;;;;;2082760;68;20329;-68
2021/12/23 04:44:59;;;;;;;17.95;12.40;;;0.60;99.90;;;;;;2089390;68;20215;-70
2021/12/23 04:47:43;;;;;;;19.05;11.82;;;-0.20;99.90;;;;;;2090371;68;20725;-70
2021/12/23 04:50:26;;;;;;;20.75;12.32;;;-0.10;99.90;;;;;;2101906;67;21040;-69
2021/12/23 04:53:15;;;;;;;19.13;11.50;;;-0.10;99.90;;;;;;2096013;68;20309;-69
2021/12/23 04:55:59;;;;;;;16.77;11.07;;;-0.10;99.90;;;;;;2103518;67;20422;-69
2021/12/23 04:58:42;;;;;;;20.75;12.20;;;-0.10;99.90;;;;;;2104064;67;20258;-69
2021/12/23 05:01:29;;;;;;;16.98;11.60;;;-0.10;99.90;;;;;;2096139;68;20199;-70
2021/12/23 05:04:11;;;;;;;18.00;12.00;;;-0.10;99.90;;;;;;2092329;68;20239;-69
2021/12/23 05:07:16;;;;;;;18.15;11.40;;;-0.10;99.90;;;;;;2097569;68;20588;-71
2021/12/23 05:10:05;;;;;;;20.30;12.65;;;-0.10;99.90;;;;;;2111269;67;20180;-71
2021/12/23 05:12:46;;;;;;;;;;;-0.10;99.90;;;;;;2096446;68;20500;-70
2021/12/23 05:15:29;;;;;;;15.80;10.30;;;0.00;99.90;;;;;;2102390;67;20074;-71
2021/12/23 05:18:11;;;;;;;18.77;11.77;;;0.20;99.90;;;;;;2108179;67;20197;-70
2021/12/23 05:20:52;;;;;;;19.77;11.55;;;0.00;99.90;;;;;;2099646;67;20420;-70
2021/12/23 05:23:39;;;;;;;18.05;11.02;;;0.00;99.90;;;;;;2084684;68;20388;-69
2021/12/23 05:26:26;;;;;;;15.05;11.20;;;0.10;99.90;;;;;;2081688;68;20831;-70
2021/12/23 05:29:11;;;;;;;17.42;10.65;;;0.00;99.90;;;;;;2088671;68;21140;-70
2021/12/23 05:31:59;;;;;;;17.63;11.32;;;0.10;99.90;;;;;;2109330;67;20300;-70
2021/12/23 05:34:43;;;;;;;17.13;11.00;;;0.10;99.90;;;;;;2108906;67;20252;-70
2021/12/23 05:37:28;;;;;;;17.40;12.00;;;0.10;99.90;;;;;;2107918;67;20265;-70
2021/12/23 05:40:14;;;;;;;17.23;11.18;;;0.40;99.90;;;;;;2100873;68;20246;-70
2021/12/23 05:42:57;;;;;;;15.30;10.63;;;0.20;99.90;;;;;;2109272;67;20237;-71
2021/12/23 05:45:39;;;;;;;19.17;11.63;;;0.20;99.90;;;;;;2094476;68;20290;-70
2021/12/23 05:48:21;;;;;;;16.92;12.55;;;0.20;99.90;;;;;;2094868;68;20222;-70
2021/12/23 05:51:03;;;;;;;17.48;11.90;;;0.20;99.90;;;;;;2090333;67;20266;-69
2021/12/23 05:53:45;;;;;;;21.08;11.45;;;0.20;99.90;;;;;;2115275;67;20360;-69
2021/12/23 05:56:27;;;;;;;17.75;10.80;;;0.20;99.90;;;;;;2111263;67;20338;-69
2021/12/23 05:59:09;;;;;;;15.98;10.15;;;0.20;99.90;;;;;;2123261;67;20756;-69
2021/12/23 06:01:51;;;;;;;16.65;10.57;;;0.30;99.90;;;;;;2125088;67;20585;-69
2021/12/23 06:04:36;;;;;;;17.17;11.70;;;0.30;99.90;;;;;;2123162;67;20244;-70
2021/12/23 06:07:17;;;;;;;17.80;11.52;;;0.30;99.90;;;;;;2108119;67;20460;-70
2021/12/23 06:09:59;;;;;;;15.35;11.23;;;0.30;99.90;;;;;;2108499;67;20213;-70
2021/12/23 06:12:43;;;;;;;17.88;11.05;;;0.30;99.90;;;;;;2103034;68;20245;-70
2021/12/23 06:15:28;;;;;;;20.88;12.15;;;0.30;99.90;;;;;;2101844;67;20654;-70
2021/12/23 06:18:13;;;;;;;15.65;11.40;;;0.30;99.90;;;;;;2093150;68;20191;-70
2021/12/23 06:20:56;;;;;;;17.88;12.15;;;0.40;99.90;;;;;;2082506;68;20751;-71
2021/12/23 06:23:39;;;;;;;19.52;12.07;;;0.30;99.90;;;;;;2094309;68;20409;-71
2021/12/23 06:26:23;;;;;;;19.17;12.05;;;0.40;99.90;;;;;;2100309;67;20365;-71
2021/12/23 06:29:05;;;;;;;16.05;11.02;;;0.40;99.90;;;;;;2102128;67;20255;-72
2021/12/23 06:31:49;;;;;;;18.80;12.38;;;0.40;99.90;;;;;;2109400;67;20334;-70
2021/12/23 06:34:33;;;;;;;19.83;12.82;;;0.40;99.90;;;;;;1890205;67;15099661;-70
2021/12/23 06:37:16;;;;;;;19.98;12.85;;;0.50;99.90;;;;;;2110103;67;20207;-70
2021/12/23 06:40:00;;;;;;;20.80;13.85;;;0.30;99.90;;;;;;2124911;67;20719;-69
2021/12/23 06:42:43;;;;;;;20.13;12.98;;;0.40;99.90;;;;;;2137714;66;20296;-69
2021/12/23 06:45:29;;;;;;;18.42;12.52;;;0.40;99.90;;;;;;2129848;67;20287;-69
2021/12/23 06:48:15;;;;;;;21.73;12.88;;;0.50;99.90;;;;;;2124486;67;20175;-69
2021/12/23 06:51:01;;;;;;;23.23;12.90;;;0.50;99.90;;;;;;2125229;67;20376;-68
2021/12/23 06:53:47;;;;;;;19.27;12.35;;;0.50;99.90;;;;;;2115408;67;20781;-69
2021/12/23 06:56:32;;;;;;;21.58;12.38;;;0.50;99.90;;;;;;2115083;67;20408;-69
2021/12/23 06:59:16;;;;;;;21.35;13.18;;;1.00;99.90;;;;;;2122821;67;20376;-69
2021/12/23 07:01:58;;;;;;;19.38;12.73;;;0.50;99.90;;;;;;2118189;67;20204;-69
2021/12/23 07:04:42;;;;;;;17.83;12.88;;;0.50;99.90;;;;;;2135896;66;20259;-69
2021/12/23 07:07:29;;;;;;;21.58;12.88;;;0.50;99.90;;;;;;2129777;66;20235;-69
2021/12/23 07:10:14;;;;;;;22.95;13.63;;;0.50;99.90;;;;;;2121069;67;20349;-69
2021/12/23 07:12:57;;;;;;;20.83;13.13;;;0.50;99.90;;;;;;2121892;67;20313;-68
2021/12/23 07:15:40;;;;;;;21.05;13.00;;;0.50;99.90;;;;;;2129356;67;20514;-70
2021/12/23 07:18:25;;;;;;;22.40;13.43;;;0.50;99.90;;;;;;2123996;66;20244;-69
2021/12/23 07:21:07;;;;;;;;;;;0.50;99.90;;;;;;2123342;67;20385;-68
2021/12/23 07:23:44;;;;;;;21.92;13.45;;;0.50;99.90;;;;;;2123013;66;20204;-70
2021/12/23 07:26:23;;;;;;;23.65;14.63;;;0.50;99.90;;;;;;2129955;67;20211;-69
2021/12/23 07:28:59;;;;;;;23.75;13.93;;;0.50;99.90;;;;;;2130714;67;20288;-70
2021/12/23 07:31:37;;;;;;;24.67;15.63;;;0.50;99.90;;;;;;2131242;67;20221;-69
2021/12/23 07:34:30;;;;;;;26.77;15.77;;;0.50;99.90;;;;;;2149342;66;20309;-70
2021/12/23 07:37:08;;;;;;;23.73;15.40;;;0.50;99.90;;;;;;2140077;66;20191;-69
2021/12/23 07:39:48;;;;;;;24.75;15.70;;;0.50;99.90;;;;;;2153787;66;20198;-69
2021/12/23 07:42:26;;;;;;;25.40;13.65;;;0.50;99.90;;;;;;2160145;66;20236;-70
2021/12/23 07:45:08;;;;;;;20.95;13.73;;;0.50;99.90;;;;;;2166518;65;20798;-69
2021/12/23 07:47:37;;;;;;;24.80;14.32;;;0.50;99.90;;;;;;2161061;65;20300;-68
2021/12/23 07:50:13;;;;;;;20.80;14.10;;;0.50;99.90;;;;;;2160361;66;20190;-69
2021/12/23 07:52:51;;;;;;;27.10;17.17;;;0.50;99.90;;;;;;2175328;65;20204;-69
2021/12/23 07:55:38;;;;;;;23.40;14.93;;;0.50;99.90;;;;;;2189860;64;20189;-69
2021/12/23 07:58:28;;;;;;;25.30;14.85;;;0.90;99.90;;;;;;2197241;64;20278;-69
2021/12/23 08:01:05;;;;;;;23.20;13.18;;;0.50;99.90;;;;;;2219022;64;20312;-68
2021/12/23 08:03:58;;;;;;;23.45;14.02;;;0.40;99.90;;;;;;2195202;65;20224;-68
2021/12/23 08:06:35;;;;;;;23.95;14.23;;;0.40;99.90;;;;;;2196923;65;20177;-69
2021/12/23 08:09:11;;;;;;;24.58;14.75;;;0.40;99.90;;;;;;2197955;65;20184;-69
2021/12/23 08:12:07;;;;;;;23.92;15.10;;;0.40;99.90;;;;;;2186808;65;20491;-68
2021/12/23 08:14:45;;;;;;;23.02;13.10;;;0.40;99.90;;;;;;2187634;65;20402;-69
2021/12/23 08:17:34;;;;;;;23.48;14.93;;;0.40;99.90;;;;;;2188160;65;20753;-72
2021/12/23 08:20:12;;;;;;;24.67;14.30;;;0.40;99.90;;;;;;2187396;65;20367;-70
2021/12/23 08:22:53;;;;;;;23.58;13.52;;;0.40;99.90;;;;;;2194326;65;20245;-71
2021/12/23 08:25:37;;;;;;;26.65;16.02;;;-0.20;99.90;;;;;;2182012;65;20199;-73
2021/12/23 08:28:19;;;;;;;23.63;14.68;;;-0.40;99.90;;;;;;2174089;65;20269;-69
2021/12/23 08:31:03;;;;;;;24.73;15.18;;;0.30;99.90;;;;;;2182682;65;20245;-73
2021/12/23 08:33:51;;;;;;;24.95;15.57;;;0.30;99.90;;;;;;2181494;65;20667;-71
2021/12/23 08:36:53;;;;;;;22.30;12.75;;;0.30;99.90;;;;;;2160296;66;20222;-71
2021/12/23 08:39:39;;;;;;;24.38;15.32;;;0.30;99.90;;;;;;2167398;65;20454;-71
2021/12/23 08:42:26;;;;;;;26.30;16.02;;;0.20;99.90;;;;;;2159192;66;20204;-70
2021/12/23 08:45:09;;;;;;;29.00;14.88;;;0.20;99.90;;;;;;2152780;66;20289;-69
2021/12/23 08:47:51;;;;;;;21.38;13.95;;;-0.50;99.90;;;;;;2138181;66;21383;-68
2021/12/23 08:50:35;;;;;;;22.60;14.35;;;0.50;99.90;;;;;;2128475;67;20671;-73
2021/12/23 08:53:24;;;;;;;24.88;15.57;;;1.20;99.90;;;;;;2135737;67;20345;-72
2021/12/23 08:56:12;;;;;;;24.35;14.45;;;0.20;99.90;;;;;;2119564;67;20258;-72
2021/12/23 08:58:58;;;;;;;24.13;14.55;;;0.30;99.90;;;;;;2124465;67;20686;-72
2021/12/23 09:01:42;;;;;;;25.33;15.82;;;0.30;99.90;;;;;;2129133;67;20896;-70
2021/12/23 09:04:30;;;;;;;24.13;15.45;;;0.20;99.90;;;;;;2139649;66;20193;-70
2021/12/23 09:07:12;;;;;;;28.05;18.88;;;0.20;99.90;;;;;;2146820;66;20238;-71
2021/12/23 09:09:58;;;;;;;24.52;15.50;;;0.30;99.90;;;;;;2149548;66;20794;-71
2021/12/23 09:12:42;;;;;;;27.15;17.42;;;0.30;99.90;;;;;;2147284;66;20732;-72
2021/12/23 09:15:42;;;;;;;26.05;17.02;;;0.30;99.90;;;;;;2147348;66;20850;-72
2021/12/23 09:18:45;;;;;;;24.52;16.10;;;0.30;99.90;;;;;;2125883;67;20398;-71
2021/12/23 09:21:31;;;;;;;28.55;17.52;;;0.40;99.90;;;;;;2141562;66;20321;-70
2021/12/23 09:24:41;;;;;;;31.25;18.83;;;0.30;99.90;;;;;;2141754;66;20249;-71
2021/12/23 09:27:56;;;;;;;24.98;16.63;;;0.20;99.90;;;;;;2138420;66;20579;-70
2021/12/23 09:33:32;;;;;;;28.15;16.98;;;0.30;99.90;;;;;;2138590;66;20732;-71
2021/12/23 09:36:16;;;;;;;24.55;15.93;;;0.50;99.90;;;;;;2126664;67;20200;-72
2021/12/23 09:38:59;;;;;;;32.90;19.20;;;0.30;99.90;;;;;;2131320;66;20230;-70
2021/12/23 09:41:48;;;;;;;28.98;17.83;;;0.30;99.90;;;;;;2126786;67;20379;-73
2021/12/23 09:44:31;;;;;;;32.53;19.08;;;0.30;99.90;;;;;;2116731;67;20221;-71
2021/12/23 09:47:21;;;;;;;33.20;18.25;;;0.30;99.90;;;;;;2118381;67;20353;-73
2021/12/23 09:50:11;;;;;;;34.88;20.10;;;0.30;99.90;;;;;;2120833;67;20223;-73
2021/12/23 09:52:59;;;;;;;35.70;21.30;;;0.20;99.90;;;;;;2129016;67;20207;-74
2021/12/23 09:55:42;;;;;;;46.30;22.20;;;0.10;99.90;;;;;;2124743;67;20208;-72
2021/12/23 09:58:24;;;;;;;35.10;22.65;;;0.10;99.90;;;;;;2120735;67;20273;-71
2021/12/23 10:01:12;;;;;;;37.28;22.27;;;0.00;99.90;;;;;;2127174;67;20642;-71
2021/12/23 10:04:02;;;;;;;42.70;25.83;;;0.00;99.90;;;;;;2130210;67;20278;-71
2021/12/23 10:06:51;;;;;;;42.47;23.02;;;0.00;99.90;;;;;;2122414;67;20653;-71
2021/12/23 10:38:55;;;;;;;75.32;35.47;;;0.40;99.90;;;;;;2134377;66;20699;-70
2021/12/23 10:41:46;;;;;;;59.00;32.22;;;0.00;99.90;;;;;;2137924;66;20323;-70
2021/12/23 10:44:30;;;;;;;75.25;34.80;;;1.10;99.90;;;;;;2155932;66;20403;-68
2021/12/23 10:47:11;;;;;;;73.03;36.22;;;-0.10;99.90;;;;;;2169957;65;20172;-68
2021/12/23 10:49:58;;;;;;;86.32;40.05;;;-0.10;99.90;;;;;;2178765;65;20262;-67
2021/12/23 10:53:03;;;;;;;73.45;35.25;;;0.00;99.90;;;;;;2190765;65;20197;-68
2021/12/23 10:58:37;;;;;;;78.18;37.08;;;0.00;99.90;;;;;;2205777;65;20173;-68
2021/12/23 11:01:16;;;;;;;71.32;35.70;;;0.00;99.90;;;;;;2223163;64;20179;-70
2021/12/23 11:04:01;;;;;;;66.45;35.67;;;0.00;99.90;;;;;;2221211;64;20219;-71
2021/12/23 11:07:25;;;;;;;73.97;38.45;;;0.40;99.90;;;;;;2205352;64;20180;-69
2021/12/23 11:10:20;;;;;;;81.95;40.25;;;0.00;99.90;;;;;;2202589;65;20728;-69
2021/12/23 11:37:49;;;;;;;103.72;44.95;;;0.10;99.90;;;;;;2169517;65;20780;-71
2021/12/23 11:43:45;;;;;;;98.03;44.60;;;0.10;99.90;;;;;;2167674;65;20204;-70
2021/12/23 11:46:55;;;;;;;96.55;45.05;;;0.10;99.90;;;;;;2152247;66;20264;-70
2021/12/23 11:49:39;;;;;;;112.30;48.45;;;0.70;99.90;;;;;;2145716;66;20348;-70
2021/12/23 11:52:22;;;;;;;119.03;51.53;;;0.20;99.90;;;;;;2125909;67;20172;-67
2021/12/23 11:55:04;;;;;;;87.22;42.90;;;0.10;99.90;;;;;;2131880;67;20279;-68
2021/12/23 11:57:47;;;;;;;105.00;44.30;;;0.20;99.90;;;;;;2117631;67;20755;-67
2021/12/23 12:00:42;;;;;;;108.32;48.70;;;0.20;99.90;;;;;;2123233;67;20221;-68
2021/12/23 12:03:28;;;;;;;104.97;45.72;;;0.30;99.90;;;;;;2131174;67;20416;-69
2021/12/23 12:06:17;;;;;;;82.93;40.13;;;0.20;99.90;;;;;;2130016;67;20376;-72
2021/12/23 12:09:19;;;;;;;97.45;44.42;;;0.30;99.90;;;;;;2124343;67;20288;-71
2021/12/23 12:12:25;;;;;;;98.60;45.58;;;0.20;99.90;;;;;;2120683;67;20719;-70
2021/12/23 12:15:10;;;;;;;98.18;42.22;;;0.30;99.90;;;;;;2107503;67;20223;-71
2021/12/23 12:18:35;;;;;;;94.10;43.80;;;0.30;99.90;;;;;;2101462;68;20174;-72
2021/12/23 12:21:44;;;;;;;94.95;44.58;;;0.30;99.90;;;;;;2112105;67;20246;-71
2021/12/23 12:24:49;;;;;;;78.95;40.47;;;0.40;99.90;;;;;;2109856;67;20181;-72
2021/12/23 12:27:31;;;;;;;108.25;51.13;;;0.40;99.90;;;;;;2096119;68;20202;-68
2021/12/23 12:30:54;;;;;;;98.15;44.95;;;0.40;99.90;;;;;;2081461;68;20278;-73
2021/12/23 12:34:19;;;;;;;117.00;50.42;;;-0.40;99.90;;;;;;2092049;68;20244;-70
2021/12/23 12:36:59;;;;;;;115.47;49.05;;;0.40;99.90;;;;;;2096013;68;20246;-69
2021/12/23 12:39:46;;;;;;;100.40;44.65;;;0.50;99.90;;;;;;2107178;67;20275;-68
2021/12/23 12:42:30;;;;;;;77.88;37.45;;;0.50;99.90;;;;;;2119531;67;20196;-72
2021/12/23 12:45:35;;;;;;;83.15;39.17;;;0.50;99.90;;;;;;2125059;67;20376;-71
2021/12/23 12:49:00;;;;;;;96.80;45.63;;;0.50;99.90;;;;;;2109745;67;20298;-70
2021/12/23 12:51:48;;;;;;;102.43;46.47;;;0.60;99.90;;;;;;2096503;68;20204;-70
2021/12/23 12:54:33;;;;;;;113.28;48.65;;;0.60;99.90;;;;;;2095890;68;21194;-71
2021/12/23 12:57:18;;;;;;;81.57;41.67;;;0.60;99.90;;;;;;2101255;68;20343;-70
2021/12/23 13:00:20;;;;;;;109.47;49.42;;;0.70;99.90;;;;;;2113823;67;20257;-69
2021/12/23 13:03:12;;;;;;;100.35;46.53;;;0.60;99.90;;;;;;2107841;67;20266;-70
2021/12/23 13:05:53;;;;;;;84.97;40.83;;;0.60;99.90;;;;;;2109269;67;20323;-69
2021/12/23 13:08:34;;;;;;;91.10;43.20;;;0.60;99.90;;;;;;2108156;67;20205;-68
2021/12/23 13:11:21;;;;;;;93.47;43.17;;;0.60;99.90;;;;;;2110300;67;20307;-69
2021/12/23 13:14:01;;;;;;;88.80;43.07;;;0.50;99.90;;;;;;2114764;67;20475;-70
2021/12/23 13:16:54;;;;;;;93.28;44.92;;;0.60;99.90;;;;;;2119954;67;20229;-71
2021/12/23 13:20:02;;;;;;;89.90;42.00;;;0.00;99.90;;;;;;2112083;67;20300;-68
2021/12/23 13:22:39;;;;;;;91.40;42.33;;;-0.10;99.90;;;;;;2116654;67;20256;-74
2021/12/23 13:26:17;;;;;;;95.93;44.72;;;0.60;99.90;;;;;;2142611;65;20343;-72
2021/12/23 13:29:19;;;;;;;100.88;46.03;;;0.50;99.90;;;;;;2171377;65;20279;-70
2021/12/23 13:32:01;;;;;;;119.15;52.85;;;0.60;99.90;;;;;;2172892;65;20204;-69
2021/12/23 13:35:09;;;;;;;84.38;41.97;;;0.50;99.90;;;;;;2179528;65;20301;-69
2021/12/23 13:37:48;;;;;;;120.03;53.00;;;0.60;99.90;;;;;;2191314;64;20251;-72
2021/12/23 13:40:39;;;;;;;113.53;51.75;;;0.60;99.90;;;;;;2204713;64;20420;-71
2021/12/23 13:44:00;;;;;;;;;;;;;;;;;;;;;
2021/12/23 13:47:07;;;;;;;99.03;46.08;;;0.30;99.90;;;;;;2191686;65;20225;-68
2021/12/23 13:49:54;;;;;;;112.07;48.22;;;-0.40;99.90;;;;;;2185559;65;20702;-69
2021/12/23 13:52:42;;;;;;;109.95;47.15;;;0.60;99.90;;;;;;2189781;65;20186;-68
2021/12/23 13:55:30;;;;;;;110.95;51.97;;;0.60;99.90;;;;;;2190287;65;20400;-69
2021/12/23 13:58:10;;;;;;;123.45;51.83;;;0.70;99.90;;;;;;2186297;65;20186;-70
2021/12/23 14:00:48;;;;;;;97.43;46.22;;;0.70;99.90;;;;;;2173789;65;20248;-69
2021/12/23 14:03:27;;;;;;;121.97;50.65;;;0.60;99.90;;;;;;2175043;65;20191;-70
2021/12/23 14:06:14;;;;;;;107.80;48.45;;;0.70;99.90;;;;;;2188485;65;20617;-70
2021/12/23 14:08:59;;;;;;;117.22;49.22;;;0.70;99.90;;;;;;2182708;65;20643;-72
2021/12/23 14:11:49;;;;;;;109.25;49.35;;;0.70;99.90;;;;;;2174044;65;20292;-71
2021/12/23 14:14:33;;;;;;;101.60;46.58;;;0.70;99.90;;;;;;2159538;66;20289;-70
2021/12/23 14:17:31;;;;;;;109.53;49.55;;;0.70;99.90;;;;;;2154516;66;20393;-70
2021/12/23 14:23:32;;;;;;;105.72;48.67;;;0.70;99.90;;;;;;2141977;66;20292;-72
2021/12/23 14:26:17;;;;;;;98.97;44.55;;;0.70;99.90;;;;;;2137949;66;20360;-71
2021/12/23 14:29:14;;;;;;;102.95;44.70;;;0.70;99.90;;;;;;2128606;67;20550;-71
2021/12/23 14:31:58;;;;;;;100.53;42.53;;;1.50;99.90;;;;;;2122354;67;20169;-69
2021/12/23 14:34:43;;;;;;;100.18;45.15;;;0.60;99.90;;;;;;2118052;67;20606;-69
2021/12/23 14:37:26;;;;;;;131.43;54.67;;;0.60;99.90;;;;;;2114117;67;20236;-69
2021/12/23 14:40:22;;;;;;;99.88;46.42;;;0.60;99.90;;;;;;2117770;67;20222;-69
2021/12/23 14:43:05;;;;;;;116.78;46.92;;;1.30;99.90;;;;;;2114848;67;20176;-69
2021/12/23 14:45:59;;;;;;;115.05;49.53;;;0.60;99.90;;;;;;2118846;67;20222;-70
2021/12/23 14:50:18;;;;;;;111.95;46.83;;;0.60;99.90;;;;;;2116656;67;20180;-69
2021/12/23 14:52:31;;;;;;;106.63;47.63;;;0.60;99.90;;;;;;2104480;67;20451;-71
2021/12/23 14:55:19;;;;;;;89.65;41.88;;;0.60;99.90;;;;;;2106500;67;20397;-69
2021/12/23 14:58:06;;;;;;;104.57;44.67;;;0.60;99.90;;;;;;2098236;68;20280;-72
2021/12/23 15:00:50;;;;;;;100.75;44.58;;;0.60;99.90;;;;;;2090649;68;20322;-71
2021/12/23 15:03:35;;;;;;;109.63;47.22;;;0.60;99.90;;;;;;2095799;68;20262;-70
2021/12/23 15:06:18;;;;;;;83.95;40.25;;;0.60;99.90;;;;;;2100228;67;20270;-69
2021/12/23 15:08:59;;;;;;;102.70;46.22;;;0.60;99.90;;;;;;2113514;67;20184;-70
2021/12/23 15:11:45;;;;;;;96.15;44.08;;;0.60;99.90;;;;;;2121886;67;20172;-73
2021/12/23 15:14:38;;;;;;;112.32;49.15;;;0.60;99.90;;;;;;2112908;67;20279;-71
2021/12/23 15:17:29;;;;;;;103.97;44.45;;;0.60;99.90;;;;;;2096719;68;20199;-71
2021/12/23 15:20:26;;;;;;;105.80;44.88;;;0.50;99.90;;;;;;2100685;67;20268;-71
2021/12/23 15:23:08;;;;;;;106.20;47.45;;;0.60;99.90;;;;;;2127970;67;20636;-70
2021/12/23 15:25:51;;;;;;;101.07;46.58;;;0.70;99.90;;;;;;2134261;67;20780;-71
2021/12/23 15:28:38;;;;;;;109.55;45.60;;;0.70;99.90;;;;;;2141305;66;20373;-68